Portada
METAR-TAF:

METAR-TAF

Aeropuertos :

Opelousas, Luisiana, Estados Unidos

latitud: 30-33-30N, longitud: 092-05-58W, altitud: 23 m

Observación

El informe se hizo hace 30 minutos, a las 17:55 UTC
Viento 10 kt del norte-noreste
Temperatura 13°C
Humedad 82%
Presión 1018 hPa
Visibilidad: 16.1 km
Cielo cubierto a una altura de 1300 ft

METAR: KOPL 271755Z AUTO 02010KT 10SM OVC013 13/10 A3005 RMK AO2 T01260096 10127 20100

Hora: 12:25 (18:25 UTC)


TAF: falta

Observaciones y pronósticos meteorológicos de más de 4000 aeropuertos (mensajes METAR y TAF).

Los puntos amarillos y rojos representan las estaciones disponibles.

Ponga el ratón en el punto deseado para ver el nombre de la estación.

Haga clic para ver las observaciones y los pronósticos meteorológicos.

Para cambiar el mapa : haga clic en los botones verdes con una cruz de color negro para hacer un zoom, en el botón verde con un guión para alejar o en las flechas verdes para mapas adyacentes.


METAR-TAF: